Time;durP1;ratioP1;P1;durP2;ratioP2;P2;SDS_P1;SDS_P2;PMS_P1;PMS_P2;Temp;Humidity;BMP_temperature;BMP_pressure;BME280_temperature;BME280_humidity;BME280_pressure;Samples;Min_cycle;Max_cycle;Signal;HPM_P1;HPM_P2
2022/12/28 00:00:24;;;;;;;12.15;2.72;;;7.10;99.90;;;;;;5054710;28;20083;-86
2022/12/28 00:02:50;;;;;;;6.78;2.20;;;7.10;99.90;;;;;;5055754;28;20071;-85
2022/12/28 00:05:16;;;;;;;10.23;2.67;;;7.10;99.90;;;;;;5038781;28;20083;-85
2022/12/28 00:07:42;;;;;;;10.25;2.67;;;7.10;99.90;;;;;;5055793;28;20040;-85
2022/12/28 00:10:09;;;;;;;7.07;2.42;;;7.10;99.90;;;;;;5056321;28;20036;-86
2022/12/28 00:12:34;;;;;;;8.38;2.60;;;7.10;99.90;;;;;;5055756;28;20039;-84
2022/12/28 00:15:00;;;;;;;6.95;2.20;;;7.10;99.90;;;;;;5055493;28;20111;-85
2022/12/28 00:17:27;;;;;;;10.32;2.50;;;7.10;99.90;;;;;;5055332;28;20438;-85
2022/12/28 00:19:52;;;;;;;12.80;2.70;;;7.10;99.90;;;;;;5055571;28;20033;-85
2022/12/28 00:22:18;;;;;;;13.55;2.55;;;7.10;99.90;;;;;;5054248;28;20083;-85
2022/12/28 00:24:44;;;;;;;9.52;2.42;;;7.10;99.90;;;;;;5054030;28;20029;-87
2022/12/28 00:27:09;;;;;;;6.50;2.55;;;7.10;99.90;;;;;;5037707;28;20430;-85
2022/12/28 00:29:35;;;;;;;10.25;2.40;;;7.10;99.90;;;;;;5054949;28;20067;-85
2022/12/28 00:32:01;;;;;;;9.13;2.83;;;7.10;99.90;;;;;;5055067;28;20033;-83
2022/12/28 00:34:26;;;;;;;10.57;2.80;;;7.10;99.90;;;;;;5056315;28;20516;-85
2022/12/28 00:36:52;;;;;;;10.00;2.88;;;7.10;99.90;;;;;;5055955;28;20060;-84
2022/12/28 00:39:19;;;;;;;7.75;2.40;;;7.20;99.90;;;;;;5057564;28;20453;-84
2022/12/28 00:41:45;;;;;;;8.48;2.50;;;7.20;99.90;;;;;;5054727;28;20025;-84
2022/12/28 00:44:11;;;;;;;10.60;2.20;;;7.20;99.90;;;;;;5053929;28;20032;-85
2022/12/28 00:46:36;;;;;;;10.27;2.40;;;7.20;99.90;;;;;;5055244;28;20028;-85
2022/12/28 00:49:02;;;;;;;7.45;2.45;;;7.20;99.90;;;;;;5055102;28;20477;-85
2022/12/28 00:51:28;;;;;;;10.35;2.28;;;7.20;99.90;;;;;;5056689;28;20021;-85
2022/12/28 00:53:54;;;;;;;8.48;2.03;;;7.20;99.90;;;;;;5055103;28;20033;-85
2022/12/28 00:56:21;;;;;;;6.57;2.35;;;7.20;99.90;;;;;;5056404;28;20063;-84
2022/12/28 00:58:46;;;;;;;6.78;1.88;;;7.30;99.90;;;;;;5054965;28;20028;-84
2022/12/28 01:01:20;;;;;;;6.40;2.03;;;7.30;99.90;;;;;;5054228;28;20425;-84
2022/12/28 01:03:46;;;;;;;8.73;2.60;;;7.30;99.90;;;;;;5055017;28;20407;-84
2022/12/28 01:06:14;;;;;;;6.63;2.15;;;7.20;99.90;;;;;;5054350;28;20063;-84
2022/12/28 01:08:41;;;;;;;10.45;2.65;;;7.30;99.90;;;;;;5054576;28;20108;-83
2022/12/28 01:11:12;;;;;;;7.75;2.50;;;7.30;99.90;;;;;;5053233;28;20413;-84
2022/12/28 01:13:38;;;;;;;4.72;2.30;;;7.20;99.90;;;;;;5054802;28;20025;-85
2022/12/28 01:16:16;;;;;;;9.10;2.28;;;7.30;99.90;;;;;;5053325;28;20035;-85
2022/12/28 01:18:42;;;;;;;6.75;2.03;;;7.30;99.90;;;;;;5054477;28;20053;-84
2022/12/28 01:21:13;;;;;;;9.40;2.50;;;7.20;99.90;;;;;;5054387;28;20127;-84
2022/12/28 01:23:39;;;;;;;6.93;2.25;;;7.30;99.90;;;;;;5053790;28;20374;-85
2022/12/28 01:26:05;;;;;;;8.40;2.15;;;7.30;99.90;;;;;;5054313;28;20025;-84
2022/12/28 01:28:31;;;;;;;7.43;2.67;;;7.30;99.90;;;;;;5053759;28;20043;-84
2022/12/28 01:31:01;;;;;;;8.40;2.75;;;7.30;99.90;;;;;;5053083;28;20037;-84
2022/12/28 01:33:26;;;;;;;6.70;2.40;;;7.30;99.90;;;;;;5054560;28;20166;-84
2022/12/28 01:35:52;;;;;;;4.90;2.30;;;7.40;99.90;;;;;;5054233;28;20108;-83
2022/12/28 01:38:18;;;;;;;10.07;2.53;;;7.40;99.90;;;;;;5052922;28;20428;-83
2022/12/28 01:40:43;;;;;;;6.20;2.83;;;7.40;99.90;;;;;;5052853;28;20029;-84
2022/12/28 01:43:15;;;;;;;10.40;3.13;;;7.40;99.90;;;;;;5053160;28;20416;-84
2022/12/28 01:45:50;;;;;;;5.57;2.80;;;7.40;99.90;;;;;;5052896;28;20095;-84
2022/12/28 01:48:22;;;;;;;7.97;2.67;;;7.40;99.90;;;;;;5054281;28;20342;-83
2022/12/28 01:50:49;;;;;;;8.77;2.63;;;7.50;99.90;;;;;;5054838;28;20025;-84
2022/12/28 01:53:16;;;;;;;5.68;2.17;;;7.50;99.90;;;;;;5035725;28;20033;-85
2022/12/28 01:55:42;;;;;;;10.52;3.05;;;7.50;99.90;;;;;;5053486;28;20029;-83
2022/12/28 01:58:18;;;;;;;8.82;2.75;;;7.50;99.90;;;;;;5052635;28;20087;-84
2022/12/28 02:00:43;;;;;;;8.70;2.90;;;7.50;99.90;;;;;;5053858;28;20100;-84
2022/12/28 02:03:18;;;;;;;7.70;3.08;;;7.50;99.90;;;;;;5052336;28;20577;-83
2022/12/28 02:05:48;;;;;;;5.80;2.88;;;7.50;99.90;;;;;;5053733;28;20490;-83
2022/12/28 02:08:30;;;;;;;8.05;3.05;;;7.50;99.90;;;;;;5053690;28;20439;-84
2022/12/28 02:10:56;;;;;;;6.43;2.90;;;7.50;99.90;;;;;;5053764;28;20112;-85
2022/12/28 02:13:23;;;;;;;7.57;2.70;;;7.60;99.90;;;;;;5052258;28;20036;-84
2022/12/28 02:15:50;;;;;;;9.00;2.97;;;7.60;99.90;;;;;;5054084;28;20454;-83
2022/12/28 02:18:17;;;;;;;6.65;3.08;;;7.60;99.90;;;;;;5035499;28;20444;-85
2022/12/28 02:21:10;;;;;;;10.35;2.72;;;7.60;99.90;;;;;;5053244;28;20021;-84
2022/12/28 02:23:42;;;;;;;7.38;2.72;;;7.60;99.90;;;;;;5053759;28;20037;-85
2022/12/28 02:26:47;;;;;;;11.38;3.00;;;7.60;99.90;;;;;;5053845;28;20032;-86
2022/12/28 02:29:40;;;;;;;9.55;3.00;;;7.60;99.90;;;;;;5053263;28;20037;-85
2022/12/28 02:32:35;;;;;;;7.82;2.92;;;7.70;99.90;;;;;;5053031;28;20029;-85
2022/12/28 02:35:19;;;;;;;8.02;2.88;;;7.60;99.90;;;;;;5053719;28;20030;-86
2022/12/28 02:37:48;;;;;;;7.35;3.38;;;7.70;99.90;;;;;;5054610;28;20028;-85
2022/12/28 02:40:13;;;;;;;10.27;2.95;;;7.70;99.90;;;;;;5057189;28;20391;-86
2022/12/28 02:42:40;;;;;;;6.75;3.25;;;7.70;99.90;;;;;;5057301;28;20029;-85
2022/12/28 02:51:07;;;;;;;6.40;3.10;;;7.70;99.90;;;;;;5057335;28;20032;-83
2022/12/28 02:53:51;;;;;;;9.73;2.65;;;7.70;99.90;;;;;;5057843;28;20036;-86
2022/12/28 02:56:38;;;;;;;11.82;3.33;;;7.70;99.90;;;;;;5057193;28;20032;-86
2022/12/28 02:59:28;;;;;;;10.77;3.28;;;7.60;99.90;;;;;;5056617;28;20180;-86
2022/12/28 03:02:38;;;;;;;6.53;3.03;;;7.60;99.90;;;;;;5056207;28;20400;-86
2022/12/28 03:05:10;;;;;;;7.07;4.03;;;7.60;99.90;;;;;;5043531;28;20095;-85
2022/12/28 03:11:03;;;;;;;6.18;3.35;;;7.60;99.90;;;;;;5057299;28;20368;-87
2022/12/28 03:13:49;;;;;;;8.45;4.13;;;7.60;99.90;;;;;;5057382;28;20024;-87
2022/12/28 03:16:24;;;;;;;6.38;3.25;;;7.60;99.90;;;;;;5055848;28;20416;-87
2022/12/28 03:32:53;;;;;;;8.23;4.30;;;7.50;99.90;;;;;;5056495;28;20436;-85
2022/12/28 03:35:22;;;;;;;6.60;4.32;;;7.50;99.90;;;;;;5054676;28;20056;-85
2022/12/28 03:38:09;;;;;;;9.68;4.63;;;7.50;99.90;;;;;;5056067;28;20024;-85
2022/12/28 03:40:46;;;;;;;7.03;4.18;;;7.50;99.90;;;;;;5056330;28;20028;-85
2022/12/28 03:43:41;;;;;;;7.57;5.15;;;7.50;99.90;;;;;;5056250;28;20107;-85
2022/12/28 03:46:31;;;;;;;7.25;4.75;;;7.50;99.90;;;;;;5054705;28;20037;-85
2022/12/28 03:48:59;;;;;;;5.82;4.28;;;7.50;99.90;;;;;;5055523;28;20527;-85
2022/12/28 03:51:27;;;;;;;7.18;4.45;;;7.50;99.90;;;;;;5054654;28;20033;-81
2022/12/28 03:53:52;;;;;;;8.68;4.68;;;7.50;99.90;;;;;;5054912;28;20040;-82
2022/12/28 03:56:21;;;;;;;7.90;5.05;;;7.50;99.90;;;;;;5038295;28;20033;-81
2022/12/28 03:58:47;;;;;;;9.55;4.70;;;7.60;99.90;;;;;;5054883;28;20029;-83
2022/12/28 04:01:13;;;;;;;9.60;4.47;;;7.60;99.90;;;;;;5055834;28;20025;-78
2022/12/28 04:03:39;;;;;;;8.40;5.25;;;7.60;99.90;;;;;;5038113;28;20041;-83
2022/12/28 04:06:06;;;;;;;8.00;4.60;;;7.60;99.90;;;;;;5038262;28;20033;-82
2022/12/28 04:08:33;;;;;;;7.70;4.78;;;7.60;99.90;;;;;;5055774;28;20021;-83
2022/12/28 04:10:59;;;;;;;7.65;4.90;;;7.70;99.90;;;;;;5054478;28;20025;-82
2022/12/28 04:13:29;;;;;;;6.38;4.57;;;7.70;99.90;;;;;;5054435;28;20120;-82
2022/12/28 04:15:59;;;;;;;8.57;5.18;;;7.70;99.90;;;;;;5055652;28;20059;-82
2022/12/28 04:18:26;;;;;;;9.02;4.97;;;7.70;99.90;;;;;;5056124;28;20117;-82
2022/12/28 04:20:52;;;;;;;6.03;4.72;;;7.70;99.90;;;;;;5054359;28;20097;-82
2022/12/28 04:23:17;;;;;;;8.75;5.22;;;7.70;99.90;;;;;;5054189;28;20474;-83
2022/12/28 04:25:43;;;;;;;10.15;5.28;;;7.70;99.90;;;;;;5055573;28;20029;-83
2022/12/28 04:28:09;;;;;;;7.70;5.25;;;7.70;99.90;;;;;;5054639;28;20462;-81
2022/12/28 04:30:34;;;;;;;5.95;4.95;;;7.70;99.90;;;;;;5055430;28;20036;-81
2022/12/28 04:33:00;;;;;;;6.40;5.38;;;7.70;99.90;;;;;;5037718;28;20116;-82
2022/12/28 04:35:25;;;;;;;8.73;5.53;;;7.80;99.90;;;;;;5055401;28;20116;-81
2022/12/28 04:37:51;;;;;;;7.85;5.63;;;7.80;99.90;;;;;;5055618;28;20033;-82
2022/12/28 04:40:17;;;;;;;7.07;5.63;;;7.80;99.90;;;;;;5055432;28;20029;-84
2022/12/28 04:42:42;;;;;;;8.85;5.70;;;7.80;99.90;;;;;;5054762;28;20522;-83
2022/12/28 04:45:08;;;;;;;9.88;5.82;;;7.80;99.90;;;;;;5053962;28;20086;-84
2022/12/28 04:47:34;;;;;;;9.63;5.68;;;7.90;99.90;;;;;;5021658;28;20122;-84
2022/12/28 04:50:00;;;;;;;9.00;6.18;;;7.80;99.90;;;;;;5037026;28;20025;-83
2022/12/28 04:52:25;;;;;;;7.20;5.30;;;7.90;99.90;;;;;;5020676;28;20033;-84
2022/12/28 04:54:51;;;;;;;10.18;6.38;;;7.90;99.90;;;;;;5054625;28;20389;-83
2022/12/28 04:57:16;;;;;;;10.70;6.78;;;7.90;99.90;;;;;;5037237;28;20037;-83
2022/12/28 04:59:42;;;;;;;11.18;5.93;;;7.90;99.90;;;;;;5037649;28;20040;-83
2022/12/28 05:02:08;;;;;;;10.18;6.18;;;7.90;99.90;;;;;;5053626;28;20047;-83
2022/12/28 05:04:33;;;;;;;10.38;6.07;;;8.00;99.90;;;;;;5036898;28;20033;-83
2022/12/28 05:06:59;;;;;;;11.65;6.55;;;8.00;99.90;;;;;;5054917;28;20033;-84
2022/12/28 05:09:24;;;;;;;11.90;6.70;;;8.00;99.90;;;;;;5054681;28;20489;-82
2022/12/28 05:11:50;;;;;;;9.43;6.68;;;8.10;99.90;;;;;;5054741;28;20036;-82
2022/12/28 05:14:16;;;;;;;9.95;6.45;;;8.10;99.90;;;;;;5054524;28;20033;-82
2022/12/28 05:16:41;;;;;;;8.50;6.88;;;8.10;99.90;;;;;;5053007;28;20028;-82
2022/12/28 05:19:07;;;;;;;10.93;6.82;;;8.10;99.90;;;;;;5053134;28;20095;-82
2022/12/28 05:21:33;;;;;;;11.15;6.85;;;8.10;99.90;;;;;;5036528;28;20037;-82
2022/12/28 05:23:58;;;;;;;11.50;6.28;;;8.10;99.90;;;;;;5053503;28;20090;-82
2022/12/28 05:26:27;;;;;;;8.13;6.88;;;8.10;99.90;;;;;;5054339;28;20025;-80
2022/12/28 05:28:54;;;;;;;8.48;6.43;;;8.20;99.90;;;;;;5054426;28;20025;-81
2022/12/28 05:31:21;;;;;;;8.63;6.13;;;8.10;99.90;;;;;;5054036;28;20025;-81
2022/12/28 05:33:47;;;;;;;9.55;6.45;;;8.20;99.90;;;;;;5037278;28;20041;-84
2022/12/28 05:36:19;;;;;;;9.35;6.28;;;8.20;99.90;;;;;;5053611;28;20385;-83
2022/12/28 05:38:45;;;;;;;10.35;6.35;;;8.30;99.90;;;;;;5055165;28;20032;-82
2022/12/28 05:41:15;;;;;;;8.82;6.05;;;8.20;99.90;;;;;;5054810;28;20378;-82
2022/12/28 05:43:41;;;;;;;10.75;6.03;;;8.30;99.90;;;;;;5055192;28;20033;-83
2022/12/28 05:46:10;;;;;;;10.43;6.05;;;8.30;99.90;;;;;;5054911;28;20029;-84
2022/12/28 05:48:38;;;;;;;9.95;5.97;;;8.30;99.90;;;;;;5055998;28;20125;-82
2022/12/28 05:51:06;;;;;;;7.45;5.65;;;8.30;99.90;;;;;;5037358;28;20470;-82
2022/12/28 05:53:32;;;;;;;7.70;5.70;;;8.30;99.90;;;;;;5038366;28;20037;-84
2022/12/28 05:56:16;;;;;;;7.82;5.90;;;8.30;99.90;;;;;;5053882;28;20033;-83
2022/12/28 05:58:42;;;;;;;8.65;5.97;;;8.40;99.90;;;;;;5056277;28;20029;-81
2022/12/28 06:01:17;;;;;;;10.15;5.57;;;8.40;99.90;;;;;;5038033;28;20029;-84
2022/12/28 06:03:43;;;;;;;9.82;5.80;;;8.40;99.90;;;;;;5053453;28;20037;-85
2022/12/28 06:06:12;;;;;;;6.88;5.40;;;8.40;99.90;;;;;;5056975;28;20029;-84
2022/12/28 06:08:39;;;;;;;12.80;6.20;;;8.40;99.90;;;;;;5055889;28;20028;-81
2022/12/28 06:11:08;;;;;;;8.95;6.35;;;8.40;99.90;;;;;;5055336;28;20033;-80
2022/12/28 06:13:34;;;;;;;8.55;5.60;;;8.40;99.90;;;;;;5053872;28;20037;-83
2022/12/28 06:16:15;;;;;;;7.45;4.88;;;8.40;99.90;;;;;;5055276;28;20040;-83
2022/12/28 06:18:41;;;;;;;7.82;5.28;;;8.40;99.90;;;;;;5054356;28;20052;-83
2022/12/28 06:21:09;;;;;;;7.13;5.10;;;8.50;99.90;;;;;;5052799;28;20033;-83
2022/12/28 06:23:35;;;;;;;6.22;5.20;;;8.50;99.90;;;;;;5053371;28;20033;-82
2022/12/28 06:26:03;;;;;;;5.15;4.28;;;8.50;99.90;;;;;;5053092;28;20025;-83
2022/12/28 06:28:30;;;;;;;7.80;4.80;;;8.50;99.90;;;;;;5053335;28;20111;-82
2022/12/28 06:31:04;;;;;;;6.45;4.90;;;8.50;99.90;;;;;;5054061;28;20029;-82
2022/12/28 06:33:30;;;;;;;7.82;5.00;;;8.50;99.90;;;;;;5053414;28;20065;-82
2022/12/28 06:35:56;;;;;;;7.97;4.22;;;8.50;99.90;;;;;;5051964;28;20048;-82
2022/12/28 06:38:22;;;;;;;6.50;4.35;;;8.50;99.90;;;;;;5053052;28;20029;-81
2022/12/28 06:40:47;;;;;;;6.85;4.22;;;8.50;99.90;;;;;;5035962;28;20044;-81
2022/12/28 06:43:13;;;;;;;7.40;4.75;;;8.60;99.90;;;;;;5051808;28;20500;-81
2022/12/28 06:45:39;;;;;;;5.55;4.00;;;8.60;99.90;;;;;;5036299;28;20057;-81
2022/12/28 06:48:04;;;;;;;7.47;4.80;;;8.50;99.90;;;;;;5051952;28;20032;-81
2022/12/28 06:50:30;;;;;;;8.00;4.22;;;8.60;99.90;;;;;;5052690;28;20111;-81
2022/12/28 06:52:56;;;;;;;8.45;4.28;;;8.60;99.90;;;;;;5053498;28;20443;-82
2022/12/28 06:55:21;;;;;;;7.93;4.00;;;8.60;99.90;;;;;;5052074;28;20436;-82
2022/12/28 06:57:47;;;;;;;5.43;3.85;;;8.60;99.90;;;;;;5051758;28;20397;-84
2022/12/28 07:00:13;;;;;;;4.93;3.70;;;8.70;99.90;;;;;;5035282;28;20357;-82
2022/12/28 07:02:38;;;;;;;6.03;3.63;;;8.70;99.90;;;;;;5051673;28;20492;-82
2022/12/28 07:05:04;;;;;;;6.18;4.20;;;8.70;99.90;;;;;;5035356;28;20030;-83
2022/12/28 07:07:30;;;;;;;5.72;3.90;;;8.70;99.90;;;;;;5035329;28;20036;-83
2022/12/28 07:09:55;;;;;;;4.88;3.60;;;8.70;99.90;;;;;;5051990;28;20025;-83
2022/12/28 07:12:21;;;;;;;8.70;4.22;;;8.70;99.90;;;;;;5051613;28;20033;-84
2022/12/28 07:14:47;;;;;;;4.57;3.65;;;8.80;99.90;;;;;;5035252;28;20520;-84
2022/12/28 07:17:12;;;;;;;6.28;3.38;;;8.80;99.90;;;;;;5053785;28;20430;-84
2022/12/28 07:19:38;;;;;;;4.57;3.65;;;8.80;99.90;;;;;;5034983;28;20382;-83
2022/12/28 07:22:04;;;;;;;4.95;3.72;;;8.80;99.90;;;;;;5052186;28;20508;-82
2022/12/28 07:24:29;;;;;;;7.15;3.65;;;8.80;99.90;;;;;;5052702;28;20059;-84
2022/12/28 07:26:55;;;;;;;6.20;3.67;;;8.80;99.90;;;;;;5055816;28;20028;-85
2022/12/28 07:29:20;;;;;;;4.75;3.20;;;8.80;99.90;;;;;;5056675;28;20421;-82
2022/12/28 07:31:46;;;;;;;6.57;3.53;;;8.90;99.90;;;;;;5056857;28;20033;-82
2022/12/28 07:34:14;;;;;;;3.58;3.28;;;8.90;99.90;;;;;;5055059;28;20393;-82
2022/12/28 07:36:40;;;;;;;5.65;3.28;;;8.90;99.90;;;;;;5056455;28;20066;-81
2022/12/28 07:39:06;;;;;;;6.45;3.78;;;8.90;99.90;;;;;;5038555;28;20116;-82
2022/12/28 07:41:33;;;;;;;7.07;3.25;;;8.90;99.90;;;;;;5055974;28;20499;-81
2022/12/28 07:43:59;;;;;;;4.40;3.47;;;8.90;99.90;;;;;;5056264;28;20044;-82
2022/12/28 07:46:34;;;;;;;5.78;3.42;;;8.90;99.90;;;;;;5057164;28;20107;-82
2022/12/28 07:49:00;;;;;;;9.10;4.15;;;8.90;99.90;;;;;;5057015;28;20509;-81
2022/12/28 07:51:35;;;;;;;6.15;3.47;;;8.90;99.90;;;;;;5056238;28;20068;-82
2022/12/28 07:54:01;;;;;;;5.93;3.97;;;8.90;99.90;;;;;;5056444;28;20040;-82
2022/12/28 07:56:29;;;;;;;6.53;3.58;;;8.90;99.90;;;;;;5056014;28;20170;-82
2022/12/28 07:58:56;;;;;;;7.10;3.53;;;9.00;99.90;;;;;;5055913;28;20056;-81
2022/12/28 08:01:25;;;;;;;6.28;3.53;;;9.00;99.90;;;;;;5056061;28;20028;-81
2022/12/28 08:03:56;;;;;;;5.18;3.03;;;9.00;99.90;;;;;;5055998;28;20029;-81
2022/12/28 08:06:22;;;;;;;4.97;3.20;;;9.00;99.90;;;;;;5055893;28;20032;-81
2022/12/28 08:08:50;;;;;;;6.90;3.65;;;9.10;99.90;;;;;;5055219;28;20465;-82
2022/12/28 08:11:20;;;;;;;6.90;3.50;;;9.10;99.90;;;;;;5056474;28;20025;-85
2022/12/28 08:13:47;;;;;;;6.65;3.50;;;9.10;99.90;;;;;;5056487;28;20025;-74
2022/12/28 08:16:16;;;;;;;5.50;3.65;;;9.10;99.90;;;;;;5055640;28;20021;-75
2022/12/28 08:18:42;;;;;;;7.10;3.70;;;9.10;99.90;;;;;;5054238;28;20102;-74
2022/12/28 08:21:19;;;;;;;6.93;3.97;;;9.10;99.90;;;;;;5055496;28;20472;-78
2022/12/28 08:23:45;;;;;;;5.00;3.67;;;9.10;99.90;;;;;;5055445;28;20060;-74
2022/12/28 08:26:14;;;;;;;6.22;3.95;;;9.20;99.90;;;;;;5054173;28;20028;-74
2022/12/28 08:28:41;;;;;;;8.15;4.03;;;9.10;99.90;;;;;;5053967;28;20051;-74
2022/12/28 08:31:22;;;;;;;8.50;4.28;;;9.20;99.90;;;;;;5055320;28;20056;-75
2022/12/28 08:33:48;;;;;;;8.32;4.20;;;9.10;99.90;;;;;;5055453;28;20033;-75
2022/12/28 08:36:14;;;;;;;7.07;3.72;;;9.10;99.90;;;;;;5054957;28;20070;-75
2022/12/28 08:38:41;;;;;;;6.25;4.05;;;9.20;99.90;;;;;;5053968;28;20119;-74
2022/12/28 08:41:09;;;;;;;9.80;4.13;;;9.20;99.90;;;;;;5055200;28;20033;-74
2022/12/28 08:43:35;;;;;;;8.02;4.22;;;9.10;99.90;;;;;;5053541;28;20091;-74
2022/12/28 08:46:11;;;;;;;8.75;4.30;;;9.10;99.90;;;;;;5053364;28;20063;-80
2022/12/28 08:48:38;;;;;;;7.63;3.70;;;9.20;99.90;;;;;;5055459;28;20028;-82
2022/12/28 08:51:09;;;;;;;7.47;4.28;;;9.20;99.90;;;;;;5053595;28;20025;-75
2022/12/28 08:53:36;;;;;;;7.68;4.53;;;9.20;99.90;;;;;;5053863;28;20032;-74
2022/12/28 08:56:09;;;;;;;6.38;3.60;;;9.20;99.90;;;;;;5055085;28;20028;-75
2022/12/28 08:58:35;;;;;;;8.05;3.50;;;9.20;99.90;;;;;;5054706;28;20029;-75
2022/12/28 09:01:05;;;;;;;8.65;4.40;;;9.20;99.90;;;;;;5054853;28;20083;-75
2022/12/28 09:03:31;;;;;;;5.13;3.10;;;9.20;99.90;;;;;;5053734;28;20037;-76
2022/12/28 09:05:56;;;;;;;4.63;3.22;;;9.30;99.90;;;;;;5037332;28;20492;-73
2022/12/28 09:08:22;;;;;;;5.13;3.03;;;9.30;99.90;;;;;;5054659;28;20029;-76
2022/12/28 09:10:48;;;;;;;5.32;3.10;;;9.30;99.90;;;;;;5053081;28;20535;-77
2022/12/28 09:13:13;;;;;;;5.72;2.65;;;9.30;99.90;;;;;;5053048;28;20033;-78
2022/12/28 09:15:39;;;;;;;3.97;3.15;;;9.30;99.90;;;;;;5054471;28;20120;-76
2022/12/28 09:18:06;;;;;;;3.65;2.42;;;9.30;99.90;;;;;;5053612;28;20500;-75
2022/12/28 09:20:33;;;;;;;5.75;2.45;;;9.30;99.90;;;;;;5053307;28;20056;-75
2022/12/28 09:22:59;;;;;;;5.03;2.50;;;9.30;99.90;;;;;;5054339;28;20056;-75
2022/12/28 09:25:24;;;;;;;3.05;2.53;;;9.30;99.90;;;;;;5053969;28;20472;-75
2022/12/28 09:27:50;;;;;;;4.00;2.20;;;9.30;99.90;;;;;;5036365;28;20029;-74
2022/12/28 09:30:16;;;;;;;4.45;2.90;;;9.30;99.90;;;;;;5054873;28;20482;-74
2022/12/28 09:32:41;;;;;;;4.05;2.75;;;9.30;99.90;;;;;;5035897;28;20033;-75
2022/12/28 09:35:07;;;;;;;5.40;2.97;;;9.30;99.90;;;;;;5054094;28;20036;-76
2022/12/28 09:37:32;;;;;;;5.82;3.15;;;9.30;99.90;;;;;;5054088;28;20040;-78
2022/12/28 09:39:58;;;;;;;7.22;3.63;;;9.30;99.90;;;;;;5052495;28;20029;-78
2022/12/28 09:42:27;;;;;;;7.82;3.30;;;9.30;99.90;;;;;;5037151;28;20037;-82
2022/12/28 09:45:04;;;;;;;4.32;3.47;;;9.30;99.90;;;;;;5052729;28;20032;-76
2022/12/28 09:47:46;;;;;;;6.90;3.53;;;9.30;99.90;;;;;;5051662;28;20056;-75
2022/12/28 09:50:14;;;;;;;7.53;3.60;;;9.30;99.90;;;;;;5052318;28;20025;-74
2022/12/28 09:53:18;;;;;;;8.65;3.50;;;9.40;99.90;;;;;;5052544;28;20106;-75
2022/12/28 09:56:02;;;;;;;5.28;3.30;;;9.40;99.90;;;;;;5053871;28;20104;-74
2022/12/28 09:58:30;;;;;;;10.40;3.97;;;9.40;99.90;;;;;;5054783;28;20029;-80
2022/12/28 10:00:58;;;;;;;11.65;3.60;;;9.30;99.90;;;;;;5053995;28;20114;-74
2022/12/28 10:03:34;;;;;;;6.85;3.40;;;9.30;99.90;;;;;;5053523;28;20086;-74
2022/12/28 10:05:59;;;;;;;7.80;3.60;;;9.30;99.90;;;;;;5052890;28;20453;-75
2022/12/28 10:08:26;;;;;;;9.93;3.63;;;9.30;99.90;;;;;;5053586;28;20044;-74
2022/12/28 10:10:54;;;;;;;6.15;3.20;;;9.30;99.90;;;;;;5052144;28;20040;-74
2022/12/28 10:13:23;;;;;;;5.03;3.20;;;9.30;99.90;;;;;;5053543;28;20041;-76
2022/12/28 10:15:50;;;;;;;7.93;3.30;;;9.30;99.90;;;;;;5051970;28;20032;-77
2022/12/28 10:18:22;;;;;;;8.55;3.45;;;9.30;99.90;;;;;;5053289;28;20059;-75
2022/12/28 10:20:48;;;;;;;6.22;2.88;;;9.30;99.90;;;;;;5053988;28;20063;-83
2022/12/28 10:23:20;;;;;;;6.22;3.78;;;9.30;99.90;;;;;;5053358;28;20068;-80
2022/12/28 10:25:48;;;;;;;5.65;2.97;;;9.40;99.90;;;;;;5052601;28;20048;-79
2022/12/28 10:28:15;;;;;;;5.00;2.72;;;9.40;99.90;;;;;;5051996;28;20393;-80
2022/12/28 10:30:46;;;;;;;4.20;2.70;;;9.40;99.90;;;;;;5052976;28;20049;-79
2022/12/28 10:33:17;;;;;;;5.65;2.78;;;9.40;99.90;;;;;;5052507;28;20120;-78
2022/12/28 10:35:53;;;;;;;6.93;3.00;;;9.40;99.90;;;;;;5052402;28;20525;-89
2022/12/28 10:38:26;;;;;;;7.03;3.10;;;9.40;99.90;;;;;;5054467;28;20025;-87
2022/12/28 10:41:00;;;;;;;4.43;3.00;;;9.40;99.90;;;;;;5052451;28;20071;-87
2022/12/28 10:43:34;;;;;;;7.10;3.08;;;9.40;99.90;;;;;;5051981;28;20060;-74
2022/12/28 10:46:01;;;;;;;7.13;3.35;;;9.40;99.90;;;;;;5053919;28;20025;-73
2022/12/28 10:48:31;;;;;;;7.50;3.05;;;9.40;99.90;;;;;;5053293;28;20044;-73
2022/12/28 10:51:15;;;;;;;6.65;2.63;;;9.40;99.90;;;;;;5053537;28;20047;-74
2022/12/28 10:53:50;;;;;;;;;;;9.40;99.90;;;;;;5053893;28;20171;-74
2022/12/28 10:56:19;;;;;;;5.22;2.90;;;9.40;99.90;;;;;;5053495;28;20427;-72
2022/12/28 10:58:46;;;;;;;7.07;3.05;;;9.40;99.90;;;;;;5053964;28;20070;-74
2022/12/28 11:01:15;;;;;;;9.10;3.03;;;9.40;99.90;;;;;;5057364;28;20056;-74
2022/12/28 11:03:44;;;;;;;4.82;2.80;;;9.40;99.90;;;;;;5055571;28;20409;-75
2022/12/28 11:06:12;;;;;;;5.35;2.30;;;9.40;99.90;;;;;;5057100;28;20028;-75
2022/12/28 11:08:40;;;;;;;3.25;2.17;;;9.40;99.90;;;;;;5056430;28;20371;-75
2022/12/28 11:11:11;;;;;;;6.03;2.40;;;9.40;99.90;;;;;;5055487;28;20033;-75
2022/12/28 11:13:38;;;;;;;6.57;2.03;;;9.40;99.90;;;;;;5055768;28;20481;-75
2022/12/28 11:16:06;;;;;;;4.07;2.03;;;9.40;99.90;;;;;;5056791;28;20028;-75
2022/12/28 11:18:32;;;;;;;2.97;1.80;;;9.40;99.90;;;;;;5056023;28;20373;-75
2022/12/28 11:20:58;;;;;;;2.88;1.77;;;9.40;99.90;;;;;;5055716;28;20025;-75
2022/12/28 11:23:30;;;;;;;2.70;1.60;;;9.40;99.90;;;;;;5055279;28;20371;-75
2022/12/28 11:25:56;;;;;;;4.93;1.55;;;9.50;99.90;;;;;;5056388;28;20048;-74
2022/12/28 11:28:23;;;;;;;1.65;1.20;;;9.50;99.90;;;;;;5056447;28;20029;-75
2022/12/28 11:30:52;;;;;;;2.72;1.30;;;9.50;99.90;;;;;;5056529;28;20033;-74
2022/12/28 11:33:43;;;;;;;1.83;1.13;;;9.50;99.90;;;;;;5056609;28;20043;-75
2022/12/28 11:36:17;;;;;;;2.35;1.10;;;9.50;99.90;;;;;;5049157;28;20029;-75
2022/12/28 11:38:48;;;;;;;1.75;1.17;;;9.40;99.90;;;;;;5056274;28;20040;-75
2022/12/28 11:41:22;;;;;;;1.42;1.10;;;9.50;99.90;;;;;;5056724;28;20028;-75
2022/12/28 11:43:56;;;;;;;1.80;1.00;;;9.50;99.90;;;;;;5055077;28;20492;-75
2022/12/28 11:46:21;;;;;;;2.00;1.25;;;9.50;99.90;;;;;;5055564;28;20025;-75
2022/12/28 11:48:53;;;;;;;3.80;1.20;;;9.50;99.90;;;;;;5056231;28;20029;-74
2022/12/28 11:51:22;;;;;;;1.10;0.80;;;9.50;99.90;;;;;;5056321;28;20033;-80
2022/12/28 11:53:57;;;;;;;3.13;0.90;;;9.50;99.90;;;;;;5054723;28;20033;-77
2022/12/28 11:56:25;;;;;;;1.35;0.85;;;9.50;99.90;;;;;;5054930;28;20032;-75
2022/12/28 11:58:57;;;;;;;2.25;0.80;;;9.50;99.90;;;;;;5054337;28;20029;-73
2022/12/28 12:01:29;;;;;;;2.63;0.85;;;9.50;99.90;;;;;;5054946;28;20025;-72
2022/12/28 12:03:58;;;;;;;1.52;0.80;;;9.50;99.90;;;;;;5055578;28;20461;-74
2022/12/28 12:07:02;;;;;;;1.30;0.90;;;9.50;99.90;;;;;;5055633;28;20029;-73
2022/12/28 12:09:44;;;;;;;2.55;1.13;;;9.60;99.90;;;;;;4994024;28;20084;-73
2022/12/28 12:12:12;;;;;;;2.22;1.15;;;9.60;99.90;;;;;;5048153;28;20033;-75
2022/12/28 12:14:43;;;;;;;3.65;0.93;;;9.60;99.90;;;;;;5055360;28;20107;-77
2022/12/28 12:17:24;;;;;;;3.20;1.85;;;9.60;99.90;;;;;;5055788;28;20021;-78
2022/12/28 12:20:00;;;;;;;2.67;1.02;;;9.60;99.90;;;;;;5055456;28;20500;-76
2022/12/28 12:22:33;;;;;;;3.55;1.10;;;9.60;99.90;;;;;;5055561;28;20124;-75
2022/12/28 12:25:17;;;;;;;2.10;0.73;;;9.60;99.90;;;;;;5054176;28;20119;-77
2022/12/28 12:27:48;;;;;;;2.72;0.88;;;9.60;99.90;;;;;;5054108;28;20021;-77
2022/12/28 12:30:20;;;;;;;3.05;1.00;;;9.60;99.90;;;;;;5055302;28;20021;-76
2022/12/28 12:33:01;;;;;;;3.95;0.93;;;9.60;99.90;;;;;;5055800;28;20107;-77
2022/12/28 12:35:45;;;;;;;2.72;1.20;;;9.60;99.90;;;;;;5055618;28;20036;-77
2022/12/28 12:38:31;;;;;;;2.38;1.13;;;9.60;99.90;;;;;;5055019;28;20024;-77
2022/12/28 12:41:12;;;;;;;7.82;1.40;;;9.60;99.90;;;;;;5055967;28;20029;-79
2022/12/28 12:44:14;;;;;;;2.30;1.00;;;9.60;99.90;;;;;;5054980;28;20465;-78
2022/12/28 12:47:01;;;;;;;5.85;1.33;;;9.70;99.90;;;;;;5055039;28;20457;-77
2022/12/28 12:49:49;;;;;;;3.47;1.45;;;9.70;99.90;;;;;;5055096;28;20517;-78
2022/12/28 12:52:33;;;;;;;4.30;1.40;;;9.70;99.90;;;;;;5053367;28;20132;-77
2022/12/28 12:55:05;;;;;;;4.20;1.33;;;9.60;99.90;;;;;;5054691;28;20465;-78
2022/12/28 12:57:37;;;;;;;4.50;1.17;;;9.60;99.90;;;;;;5054560;28;20048;-79
2022/12/28 13:00:12;;;;;;;5.90;1.80;;;9.70;99.90;;;;;;5053491;28;20035;-78
2022/12/28 13:03:02;;;;;;;4.03;1.50;;;9.70;99.90;;;;;;5054407;28;20040;-78
2022/12/28 13:05:30;;;;;;;5.35;1.63;;;9.60;99.90;;;;;;5054638;28;20068;-78
2022/12/28 13:07:57;;;;;;;2.38;1.13;;;9.60;99.90;;;;;;5054405;28;20025;-78
2022/12/28 13:10:33;;;;;;;7.28;1.60;;;9.70;99.90;;;;;;5054952;28;20052;-79
2022/12/28 13:13:00;;;;;;;6.55;1.70;;;9.70;99.90;;;;;;5054320;28;20056;-78
2022/12/28 13:15:26;;;;;;;6.43;1.40;;;9.70;99.90;;;;;;5054504;28;20052;-78
2022/12/28 13:18:14;;;;;;;5.55;1.45;;;9.70;99.90;;;;;;5053456;28;20033;-78
2022/12/28 13:20:40;;;;;;;6.20;1.50;;;9.70;99.90;;;;;;5053676;28;20029;-78
2022/12/28 13:23:15;;;;;;;6.15;1.92;;;9.70;99.90;;;;;;5053075;28;20037;-78
2022/12/28 13:25:46;;;;;;;8.57;4.13;;;9.70;99.90;;;;;;5054571;28;20462;-79
2022/12/28 13:28:30;;;;;;;7.68;2.10;;;9.70;99.90;;;;;;5054173;28;20079;-79
2022/12/28 13:31:06;;;;;;;6.75;1.83;;;9.70;99.90;;;;;;5054488;28;20025;-79
2022/12/28 13:33:32;;;;;;;7.28;1.88;;;9.70;99.90;;;;;;5054692;28;20033;-79